Time;durP1;ratioP1;P1;durP2;ratioP2;P2;SDS_P1;SDS_P2;PMS_P1;PMS_P2;Temp;Humidity;BMP_temperature;BMP_pressure;BME280_temperature;BME280_humidity;BME280_pressure;Samples;Min_cycle;Max_cycle;Signal;HPM_P1;HPM_P2
2023/06/01 00:02:22;;;;;;;10.43;8.15;;;23.90;99.90;;;;;;5053094;28;20472;-54
2023/06/01 00:04:48;;;;;;;9.57;8.25;;;23.80;99.90;;;;;;5053190;28;20025;-54
2023/06/01 00:07:14;;;;;;;9.13;7.85;;;23.80;99.90;;;;;;5048629;28;20037;-55
2023/06/01 00:09:39;;;;;;;10.68;8.00;;;23.80;99.90;;;;;;5038928;28;20044;-52
2023/06/01 00:12:06;;;;;;;10.75;8.63;;;23.80;99.90;;;;;;5042056;28;20041;-53
2023/06/01 00:14:32;;;;;;;10.38;8.30;;;23.80;99.90;;;;;;5052822;28;20032;-51
2023/06/01 00:16:58;;;;;;;9.48;8.23;;;23.80;99.90;;;;;;5052406;28;20025;-48
2023/06/01 00:19:27;;;;;;;10.68;8.50;;;23.80;99.90;;;;;;5050643;28;20053;-53
2023/06/01 00:21:54;;;;;;;10.05;8.57;;;23.80;99.90;;;;;;5049973;28;20466;-53
2023/06/01 00:24:20;;;;;;;13.35;8.07;;;23.80;99.90;;;;;;5056864;28;20032;-51
2023/06/01 00:26:47;;;;;;;8.43;7.32;;;23.70;99.90;;;;;;5054660;28;20474;-50
2023/06/01 00:29:13;;;;;;;8.52;6.68;;;23.70;99.90;;;;;;5055916;28;20029;-50
2023/06/01 00:31:39;;;;;;;9.23;7.50;;;23.60;99.90;;;;;;5056799;28;20075;-54
2023/06/01 00:34:05;;;;;;;9.88;7.80;;;23.70;99.90;;;;;;5054752;28;20067;-54
2023/06/01 00:36:31;;;;;;;12.38;7.88;;;23.60;99.90;;;;;;5056763;28;20059;-49
2023/06/01 00:39:01;;;;;;;9.75;8.20;;;23.60;99.90;;;;;;5055375;28;20033;-48
2023/06/01 00:41:28;;;;;;;9.88;8.07;;;23.60;99.90;;;;;;5054119;28;20048;-49
2023/06/01 00:43:54;;;;;;;12.35;8.65;;;23.60;99.90;;;;;;5056726;28;20032;-55
2023/06/01 00:46:45;;;;;;;10.75;8.13;;;23.60;99.90;;;;;;5052556;28;20021;-55
2023/06/01 00:49:11;;;;;;;11.52;8.93;;;23.50;99.90;;;;;;5043315;28;20040;-52
2023/06/01 00:51:36;;;;;;;9.75;8.20;;;23.50;99.90;;;;;;5056702;28;20040;-54
2023/06/01 00:54:02;;;;;;;12.80;8.40;;;23.50;99.90;;;;;;5056393;28;20119;-54
2023/06/01 00:56:28;;;;;;;12.10;8.75;;;23.50;99.90;;;;;;5053080;28;20017;-55
2023/06/01 00:58:54;;;;;;;12.25;9.30;;;23.50;99.90;;;;;;5056342;28;20043;-54
2023/06/01 01:01:22;;;;;;;12.98;9.20;;;23.50;99.90;;;;;;5054467;28;20032;-54
2023/06/01 01:03:49;;;;;;;11.50;9.02;;;23.50;99.90;;;;;;5055265;28;20458;-55
2023/06/01 01:06:22;;;;;;;15.02;9.68;;;23.50;99.90;;;;;;5056366;28;20032;-54
2023/06/01 01:09:16;;;;;;;10.35;9.27;;;23.40;99.90;;;;;;5044037;28;20075;-53
2023/06/01 01:11:52;;;;;;;12.43;10.35;;;23.50;99.90;;;;;;5053784;28;20064;-53
2023/06/01 01:14:49;;;;;;;12.95;9.57;;;23.40;99.90;;;;;;5048637;28;20075;-56
2023/06/01 01:17:32;;;;;;;10.98;9.70;;;23.40;99.90;;;;;;5053138;28;20524;-56
2023/06/01 01:20:16;;;;;;;10.70;9.23;;;23.40;99.90;;;;;;5048468;28;20025;-56
2023/06/01 01:23:06;;;;;;;12.23;10.40;;;23.30;99.90;;;;;;5055131;28;20493;-54
2023/06/01 01:25:57;;;;;;;12.35;10.05;;;23.30;99.90;;;;;;5049532;28;20488;-55
2023/06/01 01:28:42;;;;;;;14.02;10.30;;;23.30;99.90;;;;;;5048248;28;20037;-54
2023/06/01 01:31:12;;;;;;;14.25;9.93;;;23.30;99.90;;;;;;5047350;28;20032;-55
2023/06/01 01:33:39;;;;;;;12.80;9.60;;;23.30;99.90;;;;;;5055165;28;20040;-56
2023/06/01 01:36:06;;;;;;;12.05;10.00;;;23.20;99.90;;;;;;5050946;28;20025;-55
2023/06/01 01:38:36;;;;;;;11.60;9.45;;;23.20;99.90;;;;;;5054832;28;20116;-55
2023/06/01 01:41:02;;;;;;;14.25;9.77;;;23.20;99.90;;;;;;5046130;28;20039;-57
2023/06/01 01:43:30;;;;;;;16.02;10.38;;;23.20;99.90;;;;;;5053456;28;20445;-52
2023/06/01 01:46:19;;;;;;;12.75;10.20;;;23.20;99.90;;;;;;5051657;28;20021;-51
2023/06/01 01:49:09;;;;;;;16.48;10.43;;;23.10;99.90;;;;;;5053939;28;20092;-51
2023/06/01 01:51:57;;;;;;;10.60;9.48;;;23.10;99.90;;;;;;5053332;28;20033;-51
2023/06/01 01:54:25;;;;;;;13.23;9.90;;;23.10;99.90;;;;;;5053136;28;20052;-52
2023/06/01 01:56:53;;;;;;;11.98;8.75;;;23.10;99.90;;;;;;5054159;28;20445;-54
2023/06/01 01:59:26;;;;;;;13.30;9.90;;;23.00;99.90;;;;;;5055457;28;20029;-53
2023/06/01 02:01:52;;;;;;;10.82;9.73;;;23.00;99.90;;;;;;5054229;28;20446;-55
2023/06/01 02:04:18;;;;;;;11.85;9.48;;;23.00;99.90;;;;;;5054035;28;20063;-51
2023/06/01 02:06:44;;;;;;;11.38;9.30;;;23.00;99.90;;;;;;5051454;28;20021;-53
2023/06/01 02:09:10;;;;;;;11.55;9.18;;;23.10;99.90;;;;;;5045106;28;20037;-50
2023/06/01 02:11:36;;;;;;;12.35;9.15;;;23.00;99.90;;;;;;5047398;28;20941;-53
2023/06/01 02:14:02;;;;;;;13.30;9.32;;;23.00;99.90;;;;;;5054993;28;20485;-54
2023/06/01 02:16:27;;;;;;;10.77;8.90;;;23.00;99.90;;;;;;5040028;28;20033;-54
2023/06/01 02:18:59;;;;;;;10.07;9.07;;;23.00;99.90;;;;;;5055063;28;20025;-54
2023/06/01 02:21:25;;;;;;;11.88;8.38;;;23.00;99.90;;;;;;5053829;28;20036;-53
2023/06/01 02:23:51;;;;;;;10.40;8.05;;;23.00;99.90;;;;;;5047646;28;20053;-56
2023/06/01 02:26:18;;;;;;;9.70;8.20;;;23.00;99.90;;;;;;5044407;28;20040;-54
2023/06/01 02:28:47;;;;;;;13.27;8.45;;;23.00;99.90;;;;;;5054579;28;20099;-55
2023/06/01 02:31:16;;;;;;;10.02;8.05;;;23.00;99.90;;;;;;5052442;28;20040;-55
2023/06/01 02:33:42;;;;;;;12.27;7.97;;;23.00;99.90;;;;;;5054491;28;20107;-52
2023/06/01 02:36:08;;;;;;;9.88;7.88;;;23.00;99.90;;;;;;5053642;28;20111;-54
2023/06/01 02:38:33;;;;;;;9.82;7.60;;;23.00;99.90;;;;;;5054199;28;20073;-54
2023/06/01 02:40:59;;;;;;;10.43;7.85;;;23.00;99.90;;;;;;5045828;28;20029;-52
2023/06/01 02:43:24;;;;;;;10.63;8.45;;;22.90;99.90;;;;;;5036211;28;20026;-51
2023/06/01 02:49:31;;;;;;;16.55;7.78;;;22.90;99.90;;;;;;5044694;28;20040;-53
2023/06/01 02:51:57;;;;;;;10.70;7.40;;;22.90;99.90;;;;;;5035451;28;20070;-56
2023/06/01 02:54:23;;;;;;;11.23;8.52;;;22.90;99.90;;;;;;5054330;28;20014;-53
2023/06/01 02:56:48;;;;;;;11.52;8.85;;;22.80;99.90;;;;;;5051990;28;20025;-52
2023/06/01 02:59:14;;;;;;;14.00;8.00;;;22.80;99.90;;;;;;5054484;28;20076;-52
2023/06/01 03:01:40;;;;;;;9.10;7.65;;;22.80;99.90;;;;;;5053229;28;20044;-49
2023/06/01 03:04:07;;;;;;;10.88;7.72;;;22.80;99.90;;;;;;5051559;28;20482;-54
2023/06/01 03:06:37;;;;;;;10.30;7.68;;;22.80;99.90;;;;;;5054250;28;20037;-55
2023/06/01 03:09:03;;;;;;;11.60;7.53;;;22.80;99.90;;;;;;5053042;28;20052;-53
2023/06/01 03:11:35;;;;;;;12.20;7.70;;;22.80;99.90;;;;;;5051244;28;20029;-53
2023/06/01 03:14:01;;;;;;;10.13;7.65;;;22.80;99.90;;;;;;5053662;28;20032;-55
2023/06/01 03:16:26;;;;;;;9.95;8.40;;;22.80;99.90;;;;;;5052442;28;20025;-55
2023/06/01 03:18:52;;;;;;;8.75;7.53;;;22.80;99.90;;;;;;5053723;28;20028;-55
2023/06/01 03:21:17;;;;;;;10.13;7.55;;;22.80;99.90;;;;;;5051707;28;20025;-54
2023/06/01 03:23:43;;;;;;;9.52;6.70;;;22.80;99.90;;;;;;5053632;28;20056;-60
2023/06/01 03:26:12;;;;;;;9.25;7.15;;;22.80;99.90;;;;;;5051796;28;20032;-54
2023/06/01 03:28:39;;;;;;;11.55;7.20;;;22.80;99.90;;;;;;5052332;28;20025;-55
2023/06/01 03:31:06;;;;;;;11.18;7.53;;;22.80;99.90;;;;;;5048975;28;20060;-53
2023/06/01 03:33:31;;;;;;;7.80;6.97;;;22.80;99.90;;;;;;5052130;28;20029;-55
2023/06/01 03:35:57;;;;;;;10.10;7.38;;;22.80;99.90;;;;;;5051150;28;20025;-54
2023/06/01 03:38:23;;;;;;;9.65;6.25;;;22.80;99.90;;;;;;5053319;28;20107;-54
2023/06/01 03:40:48;;;;;;;8.90;6.75;;;22.80;99.90;;;;;;5052574;28;20086;-52
2023/06/01 03:43:14;;;;;;;8.18;6.22;;;22.80;99.90;;;;;;5052274;28;20514;-52
2023/06/01 03:45:39;;;;;;;9.70;7.15;;;22.80;99.90;;;;;;5053340;28;20025;-58
2023/06/01 03:48:05;;;;;;;9.23;6.82;;;22.80;99.90;;;;;;5050997;28;20490;-52
2023/06/01 03:50:31;;;;;;;11.73;6.88;;;22.80;99.90;;;;;;5053003;28;20447;-54
2023/06/01 03:52:56;;;;;;;11.73;6.78;;;22.80;99.90;;;;;;5052330;28;20103;-54
2023/06/01 03:55:22;;;;;;;11.90;7.10;;;22.80;99.90;;;;;;5053144;28;20025;-55
2023/06/01 03:57:48;;;;;;;8.98;6.45;;;22.80;99.90;;;;;;5051257;28;20104;-55
2023/06/01 04:00:20;;;;;;;10.55;6.68;;;22.80;99.90;;;;;;5050257;28;20068;-56
2023/06/01 04:02:52;;;;;;;7.22;5.80;;;22.80;99.90;;;;;;5040601;28;20033;-55
2023/06/01 04:05:19;;;;;;;8.10;5.88;;;22.80;99.90;;;;;;5050982;28;20033;-54
2023/06/01 04:07:46;;;;;;;11.32;6.10;;;22.80;99.90;;;;;;5052475;28;20047;-55
2023/06/01 04:10:13;;;;;;;10.07;6.82;;;22.80;99.90;;;;;;5052173;28;20029;-53
2023/06/01 04:12:41;;;;;;;6.88;6.03;;;22.80;99.90;;;;;;5051814;28;20061;-53
2023/06/01 04:15:08;;;;;;;7.68;5.88;;;22.80;99.90;;;;;;5053249;28;20032;-55
2023/06/01 04:17:36;;;;;;;7.82;6.60;;;22.80;99.90;;;;;;5052069;28;20139;-56
2023/06/01 04:20:06;;;;;;;7.70;5.80;;;22.80;99.90;;;;;;5050495;28;20524;-54
2023/06/01 04:22:32;;;;;;;8.30;6.15;;;22.80;99.90;;;;;;5052937;28;20024;-55
2023/06/01 04:24:58;;;;;;;8.88;6.30;;;22.80;99.90;;;;;;5051787;28;20100;-55
2023/06/01 04:27:24;;;;;;;7.70;5.82;;;22.80;99.90;;;;;;5052828;28;20108;-57
2023/06/01 04:29:50;;;;;;;9.82;5.95;;;22.80;99.90;;;;;;5051908;28;20300;-55
2023/06/01 04:32:21;;;;;;;8.35;6.28;;;22.80;99.90;;;;;;5051878;28;20052;-56
2023/06/01 04:34:50;;;;;;;8.40;6.13;;;22.80;99.90;;;;;;5050085;28;20104;-55
2023/06/01 04:37:19;;;;;;;6.78;5.53;;;22.80;99.90;;;;;;5050808;28;20040;-53
2023/06/01 04:39:48;;;;;;;7.93;5.72;;;22.80;99.90;;;;;;5051584;28;20049;-56
2023/06/01 04:42:16;;;;;;;10.10;5.78;;;22.80;99.90;;;;;;5050459;28;20029;-56
2023/06/01 04:44:49;;;;;;;9.32;6.00;;;22.80;99.90;;;;;;5051593;28;20104;-55
2023/06/01 04:47:39;;;;;;;9.77;6.13;;;22.80;99.90;;;;;;5049785;28;20064;-55
2023/06/01 04:50:10;;;;;;;9.32;5.68;;;22.80;99.90;;;;;;5052478;28;20091;-56
2023/06/01 04:52:36;;;;;;;8.82;5.72;;;22.80;99.90;;;;;;5050511;28;20059;-56
2023/06/01 04:55:06;;;;;;;8.65;5.82;;;22.80;99.90;;;;;;5052698;28;20021;-60
2023/06/01 04:57:33;;;;;;;10.65;6.03;;;22.80;99.90;;;;;;5049166;28;20478;-55
2023/06/01 05:00:00;;;;;;;7.30;5.78;;;22.90;99.90;;;;;;5051166;28;20021;-58
2023/06/01 05:02:26;;;;;;;6.38;5.78;;;22.90;99.90;;;;;;5052371;28;20028;-56
2023/06/01 05:04:52;;;;;;;7.65;5.28;;;22.80;99.90;;;;;;5050639;28;20035;-54
2023/06/01 05:07:18;;;;;;;8.38;5.75;;;22.80;99.90;;;;;;5052273;28;20116;-55
2023/06/01 05:09:43;;;;;;;7.40;5.63;;;22.90;99.90;;;;;;5052396;28;20025;-56
2023/06/01 05:12:09;;;;;;;9.07;6.00;;;22.90;99.90;;;;;;5054913;28;20446;-56
2023/06/01 05:14:35;;;;;;;8.23;6.35;;;22.90;99.90;;;;;;5053748;28;20371;-54
2023/06/01 05:17:01;;;;;;;7.70;5.60;;;23.00;99.90;;;;;;5053763;28;20064;-56
2023/06/01 05:19:39;;;;;;;8.07;5.57;;;23.00;99.90;;;;;;5053588;28;20033;-56
2023/06/01 05:22:05;;;;;;;11.02;6.32;;;23.10;99.90;;;;;;5042353;28;20017;-54
2023/06/01 05:24:33;;;;;;;7.65;5.95;;;23.00;99.90;;;;;;5054856;28;20682;-56
2023/06/01 05:26:59;;;;;;;8.18;6.15;;;23.10;99.90;;;;;;5050436;28;20103;-52
2023/06/01 05:29:25;;;;;;;8.52;6.32;;;23.10;99.90;;;;;;5040586;28;20474;-46
2023/06/01 05:31:50;;;;;;;7.50;6.30;;;23.00;99.90;;;;;;5055592;28;20132;-49
2023/06/01 05:34:16;;;;;;;8.07;5.50;;;23.10;99.90;;;;;;5054743;28;20024;-48
2023/06/01 05:36:42;;;;;;;9.32;6.90;;;23.10;99.90;;;;;;5055819;28;20025;-48
2023/06/01 05:39:07;;;;;;;7.50;5.57;;;23.10;99.90;;;;;;5052252;28;20085;-50
2023/06/01 05:41:33;;;;;;;7.03;5.43;;;23.10;99.90;;;;;;5053665;28;20479;-48
2023/06/01 05:43:59;;;;;;;6.53;5.43;;;23.10;99.90;;;;;;5053358;28;20017;-46
2023/06/01 05:46:25;;;;;;;7.25;5.97;;;23.10;99.90;;;;;;5053162;28;20037;-45
2023/06/01 05:48:51;;;;;;;9.30;6.35;;;23.10;99.90;;;;;;5055082;28;20071;-46
2023/06/01 05:51:17;;;;;;;9.05;6.30;;;23.10;99.90;;;;;;5047969;28;20033;-47
2023/06/01 05:53:43;;;;;;;7.72;5.97;;;23.10;99.90;;;;;;5055659;28;20502;-50
2023/06/01 05:56:09;;;;;;;8.00;6.25;;;23.20;99.90;;;;;;5053129;28;20044;-51
2023/06/01 05:58:34;;;;;;;8.68;6.22;;;23.20;99.90;;;;;;5055573;28;20096;-52
2023/06/01 06:01:00;;;;;;;7.25;6.28;;;23.10;99.90;;;;;;5053486;28;20060;-48
2023/06/01 06:03:26;;;;;;;10.02;6.38;;;23.10;99.90;;;;;;5055115;28;20082;-50
2023/06/01 06:05:52;;;;;;;11.18;6.50;;;23.10;99.90;;;;;;5052927;28;20025;-51
2023/06/01 06:08:18;;;;;;;8.75;5.97;;;23.10;99.90;;;;;;5055271;28;20029;-51
2023/06/01 06:10:43;;;;;;;10.90;6.70;;;23.20;99.90;;;;;;5053805;28;20048;-47
2023/06/01 06:13:10;;;;;;;10.02;7.00;;;23.20;99.90;;;;;;5054971;28;20061;-53
2023/06/01 06:15:35;;;;;;;7.38;6.55;;;23.20;99.90;;;;;;5050521;28;20021;-51
2023/06/01 06:18:01;;;;;;;9.38;6.80;;;23.20;99.90;;;;;;5045590;28;20086;-49
2023/06/01 06:20:27;;;;;;;10.20;6.68;;;23.10;99.90;;;;;;5051382;28;20111;-50
2023/06/01 06:22:53;;;;;;;12.02;6.65;;;23.20;99.90;;;;;;5055198;28;20044;-48
2023/06/01 06:25:19;;;;;;;8.95;5.82;;;23.20;99.90;;;;;;5053647;28;20070;-53
2023/06/01 06:27:46;;;;;;;7.18;6.32;;;23.20;99.90;;;;;;5053403;28;20085;-50
2023/06/01 06:30:12;;;;;;;15.45;6.93;;;23.20;99.90;;;;;;5050997;28;20029;-51
2023/06/01 06:32:38;;;;;;;8.63;6.75;;;23.20;99.90;;;;;;5054641;28;20478;-53
2023/06/01 06:35:04;;;;;;;8.93;6.43;;;23.20;99.90;;;;;;5053441;28;20036;-48
2023/06/01 06:37:30;;;;;;;8.65;5.88;;;23.20;99.90;;;;;;5053566;28;20029;-49
2023/06/01 06:39:59;;;;;;;12.23;7.35;;;23.30;99.90;;;;;;5052524;28;20055;-48
2023/06/01 06:42:25;;;;;;;7.70;6.63;;;23.30;99.90;;;;;;5052506;28;20041;-47
2023/06/01 06:44:51;;;;;;;14.32;6.07;;;23.30;99.90;;;;;;5054509;28;20029;-53
2023/06/01 06:47:19;;;;;;;6.85;6.13;;;23.30;99.90;;;;;;5050910;28;20021;-51
2023/06/01 06:49:45;;;;;;;7.05;6.10;;;23.30;99.90;;;;;;5041870;28;20040;-50
2023/06/01 06:52:11;;;;;;;9.02;6.13;;;23.30;99.90;;;;;;5051233;28;20041;-47
2023/06/01 06:54:38;;;;;;;7.22;6.10;;;23.30;99.90;;;;;;5054132;28;20020;-48
2023/06/01 06:57:04;;;;;;;9.13;6.20;;;23.40;99.90;;;;;;5051262;28;20383;-48
2023/06/01 06:59:30;;;;;;;8.48;6.25;;;23.40;99.90;;;;;;5054213;28;20090;-48
2023/06/01 07:01:56;;;;;;;9.65;6.25;;;23.30;99.90;;;;;;5045583;28;20147;-48
2023/06/01 07:04:21;;;;;;;9.60;6.53;;;23.40;99.90;;;;;;5048742;28;20032;-47
2023/06/01 07:06:47;;;;;;;9.45;6.53;;;23.40;99.90;;;;;;5051577;28;20028;-45
2023/06/01 07:09:13;;;;;;;8.82;6.20;;;23.50;99.90;;;;;;5052653;28;20036;-47
2023/06/01 07:11:42;;;;;;;8.80;5.80;;;23.50;99.90;;;;;;5052952;28;20044;-46
2023/06/01 07:14:08;;;;;;;9.80;7.05;;;23.50;99.90;;;;;;5052715;28;20031;-46
2023/06/01 07:16:34;;;;;;;6.53;5.45;;;23.50;99.90;;;;;;5048238;28;20036;-44
2023/06/01 07:19:00;;;;;;;8.32;5.75;;;23.50;99.90;;;;;;5052392;28;20028;-49
2023/06/01 07:21:25;;;;;;;6.28;5.22;;;23.50;99.90;;;;;;5048465;28;20032;-44
2023/06/01 07:23:51;;;;;;;12.40;6.72;;;23.60;99.90;;;;;;5052062;28;20493;-47
2023/06/01 07:26:17;;;;;;;8.02;5.55;;;23.50;99.90;;;;;;5049277;28;20036;-50
2023/06/01 07:28:43;;;;;;;6.43;5.63;;;23.60;99.90;;;;;;5047864;28;20033;-51
2023/06/01 07:31:09;;;;;;;8.05;4.90;;;23.50;99.90;;;;;;5050339;28;20040;-50
2023/06/01 07:33:37;;;;;;;7.45;5.60;;;23.50;99.90;;;;;;5051230;28;20035;-59
2023/06/01 07:36:06;;;;;;;6.70;6.05;;;23.60;99.90;;;;;;5042375;28;20025;-47
2023/06/01 07:38:32;;;;;;;7.05;5.88;;;23.60;99.90;;;;;;5042496;28;20045;-44
2023/06/01 07:40:58;;;;;;;13.48;6.63;;;23.60;99.90;;;;;;5052895;28;20204;-44
2023/06/01 07:43:24;;;;;;;7.82;5.93;;;23.70;99.90;;;;;;5037958;28;20025;-48
2023/06/01 07:45:50;;;;;;;9.10;6.03;;;23.70;99.90;;;;;;5039409;28;20036;-45
2023/06/01 07:48:16;;;;;;;11.52;6.13;;;23.80;99.90;;;;;;5053075;28;20116;-47
2023/06/01 07:50:42;;;;;;;6.20;5.47;;;23.80;99.90;;;;;;5045935;28;20036;-46
2023/06/01 07:53:08;;;;;;;8.43;6.25;;;23.80;99.90;;;;;;5039512;28;20450;-46
2023/06/01 07:55:38;;;;;;;8.50;5.78;;;23.90;99.90;;;;;;5050459;28;20021;-46
2023/06/01 07:58:04;;;;;;;7.63;6.00;;;23.90;99.90;;;;;;5052206;28;20025;-45
2023/06/01 08:00:29;;;;;;;8.90;5.85;;;23.90;99.90;;;;;;5051984;28;20031;-45
2023/06/01 08:02:57;;;;;;;12.70;5.82;;;24.00;99.90;;;;;;5053004;28;20021;-45
2023/06/01 08:05:23;;;;;;;11.95;6.68;;;24.00;99.90;;;;;;5048625;28;20041;-53
2023/06/01 08:07:49;;;;;;;8.52;5.68;;;24.10;99.90;;;;;;5044368;28;20100;-45
2023/06/01 08:10:14;;;;;;;11.02;6.65;;;24.10;99.90;;;;;;5043979;28;20052;-52
2023/06/01 08:12:42;;;;;;;6.43;5.80;;;24.10;99.90;;;;;;5046618;28;20102;-44
2023/06/01 08:15:10;;;;;;;8.73;6.43;;;24.10;99.90;;;;;;5051791;28;20417;-46
2023/06/01 08:17:37;;;;;;;7.03;5.68;;;24.20;99.90;;;;;;5052780;28;20482;-43
2023/06/01 08:20:10;;;;;;;7.15;5.78;;;24.20;99.90;;;;;;5048950;28;20055;-44
2023/06/01 08:22:36;;;;;;;6.88;4.93;;;24.30;99.90;;;;;;5051486;28;20033;-45
2023/06/01 08:25:02;;;;;;;9.18;5.88;;;24.30;99.90;;;;;;5042246;28;20390;-45
2023/06/01 08:27:28;;;;;;;6.70;5.97;;;24.30;99.90;;;;;;5052679;28;20063;-46
2023/06/01 08:29:54;;;;;;;8.55;5.82;;;24.30;99.90;;;;;;5045525;28;20414;-45
2023/06/01 08:32:20;;;;;;;7.53;5.55;;;24.30;99.90;;;;;;5043075;28;20044;-47
2023/06/01 08:34:46;;;;;;;6.45;5.85;;;24.40;99.90;;;;;;5042359;28;20032;-46
2023/06/01 08:37:13;;;;;;;8.55;6.45;;;24.40;99.90;;;;;;5046067;28;20055;-46
2023/06/01 08:39:39;;;;;;;6.18;5.57;;;24.50;99.90;;;;;;5044141;28;20410;-44
2023/06/01 08:42:05;;;;;;;7.18;6.28;;;24.50;99.90;;;;;;5044934;28;20103;-47
2023/06/01 08:44:36;;;;;;;8.65;6.85;;;24.50;99.90;;;;;;5044562;28;20116;-44
2023/06/01 08:47:03;;;;;;;7.45;5.80;;;24.60;99.90;;;;;;5049730;28;20029;-43
2023/06/01 08:49:31;;;;;;;7.10;5.95;;;24.60;99.90;;;;;;5048953;28;20072;-44
2023/06/01 08:51:58;;;;;;;8.77;6.22;;;24.60;99.90;;;;;;5046733;28;20036;-47
2023/06/01 08:54:24;;;;;;;6.93;6.13;;;24.70;99.90;;;;;;5045762;28;20100;-47
2023/06/01 08:57:09;;;;;;;6.72;5.93;;;24.70;99.90;;;;;;5047236;28;20462;-50
2023/06/01 08:59:35;;;;;;;7.43;6.18;;;24.70;99.90;;;;;;5044893;28;20086;-48
2023/06/01 09:02:02;;;;;;;6.75;6.10;;;24.80;99.90;;;;;;5048727;28;20050;-45
2023/06/01 09:04:30;;;;;;;8.98;6.68;;;24.80;99.90;;;;;;5049559;28;20095;-43
2023/06/01 09:06:56;;;;;;;8.07;6.57;;;24.80;99.90;;;;;;5046292;28;20021;-47
2023/06/01 09:09:22;;;;;;;10.98;6.38;;;24.80;99.90;;;;;;5048546;28;20036;-43
2023/06/01 09:11:47;;;;;;;7.20;6.15;;;24.90;99.90;;;;;;5047120;28;20453;-44
2023/06/01 09:14:31;;;;;;;7.47;5.55;;;24.90;99.90;;;;;;5049254;28;20478;-46
2023/06/01 09:16:57;;;;;;;9.57;6.32;;;25.00;99.90;;;;;;5047646;28;20397;-45
2023/06/01 09:19:22;;;;;;;8.77;6.82;;;25.10;99.90;;;;;;5045365;28;20116;-43
2023/06/01 09:21:57;;;;;;;8.05;7.28;;;25.10;99.90;;;;;;5046650;28;20025;-43
2023/06/01 09:24:22;;;;;;;7.47;6.78;;;25.10;99.90;;;;;;5048592;28;20111;-44
2023/06/01 09:26:49;;;;;;;8.52;6.47;;;25.20;99.90;;;;;;5044124;28;20112;-46
2023/06/01 09:29:16;;;;;;;9.35;7.18;;;25.20;99.90;;;;;;5049317;28;20279;-44
2023/06/01 09:31:45;;;;;;;8.57;6.38;;;25.20;99.90;;;;;;5048857;28;20041;-46
2023/06/01 09:34:18;;;;;;;9.18;6.65;;;25.30;99.90;;;;;;5044414;28;20033;-47
2023/06/01 09:36:48;;;;;;;9.75;6.43;;;25.40;99.90;;;;;;5044157;28;20474;-44
2023/06/01 09:39:15;;;;;;;9.50;8.45;;;25.40;99.90;;;;;;5046087;28;20081;-47
2023/06/01 09:41:52;;;;;;;10.60;6.80;;;25.40;99.90;;;;;;5044471;28;20033;-44
2023/06/01 09:44:27;;;;;;;10.27;6.30;;;25.50;99.90;;;;;;5042588;28;20124;-58
2023/06/01 09:46:55;;;;;;;11.13;6.85;;;25.50;99.90;;;;;;5046262;28;20037;-46
2023/06/01 09:49:24;;;;;;;8.55;6.85;;;25.60;99.90;;;;;;5044697;28;20029;-46
2023/06/01 09:51:51;;;;;;;8.15;6.32;;;25.70;99.90;;;;;;5051397;28;20052;-60
2023/06/01 09:54:25;;;;;;;10.68;8.13;;;25.70;99.90;;;;;;5052482;28;20039;-59
2023/06/01 09:56:52;;;;;;;14.45;8.43;;;25.60;99.90;;;;;;5051512;28;20033;-59
2023/06/01 09:59:18;;;;;;;11.68;8.60;;;25.60;99.90;;;;;;5053675;28;20120;-59
2023/06/01 10:01:50;;;;;;;10.57;9.07;;;25.70;99.90;;;;;;5054358;28;20029;-59
2023/06/01 10:04:23;;;;;;;9.07;8.05;;;25.80;99.90;;;;;;5055284;28;20036;-59
2023/06/01 10:06:52;;;;;;;8.52;7.43;;;25.90;99.90;;;;;;5041010;28;20117;-62
2023/06/01 10:09:20;;;;;;;8.13;7.32;;;25.90;99.90;;;;;;5053891;28;20029;-48
2023/06/01 10:11:48;;;;;;;8.02;6.43;;;26.00;99.90;;;;;;5052282;28;20174;-48
2023/06/01 10:14:15;;;;;;;9.98;7.85;;;26.10;99.90;;;;;;5054033;28;20029;-46
2023/06/01 10:16:42;;;;;;;11.20;9.00;;;26.30;99.90;;;;;;5055099;28;20025;-49
2023/06/01 10:19:08;;;;;;;14.77;8.63;;;26.30;99.90;;;;;;5046042;28;20434;-45
2023/06/01 10:21:35;;;;;;;12.77;8.05;;;26.20;99.90;;;;;;5049534;28;20025;-45
2023/06/01 10:24:01;;;;;;;9.55;8.55;;;26.30;99.90;;;;;;5053888;28;20067;-45
2023/06/01 10:26:30;;;;;;;10.05;8.75;;;26.50;99.90;;;;;;5056833;28;20024;-47
2023/06/01 10:28:57;;;;;;;12.18;9.02;;;26.60;99.90;;;;;;5051830;28;20431;-47
2023/06/01 10:31:42;;;;;;;13.35;10.20;;;26.70;99.90;;;;;;5057093;28;20410;-45
2023/06/01 10:34:12;;;;;;;9.82;8.93;;;26.80;99.90;;;;;;5058093;28;20024;-44
2023/06/01 10:36:53;;;;;;;10.65;8.82;;;26.80;99.90;;;;;;5053770;28;20525;-46
2023/06/01 10:39:32;;;;;;;10.57;9.48;;;26.90;99.90;;;;;;5053452;28;20059;-45
2023/06/01 10:42:19;;;;;;;9.20;8.30;;;26.90;99.90;;;;;;5054214;28;20449;-67
2023/06/01 10:44:46;;;;;;;12.55;8.82;;;26.90;99.90;;;;;;5050581;28;20079;-46
2023/06/01 10:47:12;;;;;;;11.00;9.27;;;27.10;99.90;;;;;;5082556;28;20026;-45
2023/06/01 10:49:46;;;;;;;12.25;8.50;;;27.20;99.90;;;;;;5052440;28;20024;-46
2023/06/01 10:52:38;;;;;;;10.85;9.75;;;27.30;99.90;;;;;;5048210;28;20457;-46
2023/06/01 10:55:06;;;;;;;11.40;8.57;;;27.40;99.90;;;;;;5051723;28;20021;-52
2023/06/01 10:57:32;;;;;;;10.10;8.20;;;27.40;99.90;;;;;;5055876;28;20029;-47
2023/06/01 11:00:18;;;;;;;11.48;10.27;;;27.60;99.90;;;;;;5056273;28;20047;-46
2023/06/01 11:02:57;;;;;;;10.18;9.10;;;27.70;99.90;;;;;;5055568;28;20032;-47
2023/06/01 11:05:37;;;;;;;8.98;8.02;;;27.80;99.90;;;;;;5042801;28;20021;-50
2023/06/01 11:08:23;;;;;;;11.63;10.07;;;27.90;99.90;;;;;;5050040;28;20112;-48
2023/06/01 11:11:10;;;;;;;10.45;9.35;;;28.00;99.90;;;;;;5041593;28;20049;-46
2023/06/01 11:13:41;;;;;;;14.35;8.90;;;28.00;99.90;;;;;;5055277;28;20498;-47
2023/06/01 11:16:07;;;;;;;9.98;8.23;;;28.10;99.90;;;;;;5053725;28;20394;-47
2023/06/01 11:19:02;;;;;;;9.82;8.77;;;28.30;99.90;;;;;;5052834;28;20021;-47
2023/06/01 11:21:30;;;;;;;9.95;8.68;;;28.50;99.90;;;;;;5052678;28;20386;-50
2023/06/01 11:23:58;;;;;;;11.02;9.07;;;28.60;99.90;;;;;;5052624;28;20481;-46
2023/06/01 11:26:29;;;;;;;8.73;7.45;;;28.80;99.90;;;;;;5050669;28;20039;-46
2023/06/01 11:29:09;;;;;;;10.68;8.98;;;29.20;99.90;;;;;;5053693;28;20540;-47
2023/06/01 11:31:54;;;;;;;10.45;8.93;;;29.50;99.90;;;;;;5042800;28;20475;-48
2023/06/01 11:34:27;;;;;;;9.35;8.38;;;29.50;99.90;;;;;;5045998;28;20040;-49
2023/06/01 11:36:52;;;;;;;7.82;7.13;;;30.00;99.90;;;;;;5053144;28;20021;-47
2023/06/01 11:39:24;;;;;;;8.68;7.60;;;30.40;99.90;;;;;;5053642;28;20056;-46
2023/06/01 11:42:12;;;;;;;10.20;9.30;;;31.10;99.90;;;;;;5052627;28;20021;-46
2023/06/01 11:44:40;;;;;;;10.00;8.65;;;31.40;99.90;;;;;;5056449;28;20861;-46
2023/06/01 11:47:07;;;;;;;8.60;7.85;;;31.70;99.90;;;;;;5054189;28;20036;-47
2023/06/01 11:49:44;;;;;;;8.48;7.53;;;32.40;99.90;;;;;;5047608;28;20096;-46
2023/06/01 11:52:10;;;;;;;8.23;7.53;;;33.30;99.90;;;;;;5042183;28;20087;-45
2023/06/01 11:54:37;;;;;;;10.60;9.32;;;33.20;99.90;;;;;;5054599;28;20033;-45
2023/06/01 11:57:04;;;;;;;9.55;8.50;;;32.80;99.90;;;;;;5054024;28;20462;-45
2023/06/01 11:59:39;;;;;;;7.82;6.80;;;33.70;99.90;;;;;;5050887;28;20030;-46
2023/06/01 12:02:21;;;;;;;7.85;7.07;;;36.20;99.90;;;;;;5052359;28;20096;-49
2023/06/01 12:04:57;;;;;;;8.30;7.50;;;36.50;99.90;;;;;;5039892;28;20063;-46
2023/06/01 12:07:23;;;;;;;13.93;9.35;;;36.30;99.90;;;;;;5052088;28;20033;-53
2023/06/01 12:09:53;;;;;;;8.52;7.55;;;38.20;99.90;;;;;;5050783;28;20513;-53
2023/06/01 12:12:21;;;;;;;8.93;7.18;;;40.70;99.90;;;;;;5051169;28;20048;-53
2023/06/01 12:14:49;;;;;;;9.55;8.18;;;42.10;99.90;;;;;;5051163;28;20370;-51
2023/06/01 12:17:14;;;;;;;9.45;8.55;;;41.70;99.90;;;;;;5052452;28;20063;-47
2023/06/01 12:19:48;;;;;;;9.25;8.23;;;40.20;99.90;;;;;;5050133;28;20029;-48
2023/06/01 12:22:15;;;;;;;8.20;7.40;;;37.00;99.90;;;;;;5053079;28;20056;-47
2023/06/01 12:24:41;;;;;;;8.82;8.02;;;38.50;99.90;;;;;;5050723;28;20048;-50
2023/06/01 12:27:15;;;;;;;10.30;7.60;;;35.50;99.90;;;;;;5052565;28;20017;-54
2023/06/01 12:30:02;;;;;;;8.20;7.28;;;36.30;99.90;;;;;;5043323;28;20453;-46
2023/06/01 12:32:37;;;;;;;9.23;6.90;;;37.90;99.90;;;;;;5050757;28;20482;-56
2023/06/01 12:35:06;;;;;;;8.73;7.85;;;38.70;99.90;;;;;;5044940;28;20383;-45
2023/06/01 12:37:32;;;;;;;7.82;7.05;;;37.40;99.90;;;;;;5050991;28;20037;-49
2023/06/01 12:39:59;;;;;;;8.77;7.97;;;37.50;99.90;;;;;;5050313;28;20037;-47
2023/06/01 12:42:40;;;;;;;8.30;7.50;;;37.40;99.90;;;;;;5052962;28;20040;-47
2023/06/01 12:45:07;;;;;;;7.72;6.97;;;36.90;99.90;;;;;;5051666;28;20025;-48
2023/06/01 12:47:41;;;;;;;9.27;7.40;;;36.60;99.90;;;;;;5050199;28;20079;-45
2023/06/01 12:50:12;;;;;;;8.10;7.35;;;35.50;99.90;;;;;;5056029;28;20389;-48
2023/06/01 12:52:40;;;;;;;8.00;7.35;;;34.00;99.90;;;;;;5047109;28;20045;-49
2023/06/01 12:55:08;;;;;;;8.13;7.32;;;33.80;99.90;;;;;;5045895;28;20052;-48
2023/06/01 12:57:35;;;;;;;8.00;7.38;;;32.60;99.90;;;;;;5044752;28;20017;-48